Time;durP1;ratioP1;P1;durP2;ratioP2;P2;SDS_P1;SDS_P2;PMS_P1;PMS_P2;Temp;Humidity;BMP_temperature;BMP_pressure;BME280_temperature;BME280_humidity;BME280_pressure;Samples;Min_cycle;Max_cycle;Signal;HPM_P1;HPM_P2
2022/11/14 00:00:30;;;;;;;;;38.75;33.50;;;;;9.63;76.20;100835.88;5076705;28;45498;-57
2022/11/14 00:02:59;;;;;;;;;34.75;31.75;;;;;9.63;77.01;100830.56;5076895;27;45754;-58
2022/11/14 00:05:25;;;;;;;;;40.50;35.00;;;;;9.69;76.20;100830.28;5072001;28;45433;-57
2022/11/14 00:07:50;;;;;;;;;33.50;30.25;;;;;9.74;76.49;100822.94;5061338;28;46157;-57
2022/11/14 00:10:16;;;;;;;;;44.75;34.25;;;;;9.72;75.86;100824.81;5044174;28;45745;-57
2022/11/14 00:12:41;;;;;;;;;41.75;33.25;;;;;9.67;75.93;100801.16;5077724;27;45485;-58
2022/11/14 00:15:07;;;;;;;;;41.75;34.50;;;;;9.72;75.73;100808.88;5065511;28;46104;-54
2022/11/14 00:17:33;;;;;;;;;41.50;33.25;;;;;9.67;76.02;100821.53;5089467;27;45550;-57
2022/11/14 00:19:58;;;;;;;;;40.00;36.00;;;;;9.61;76.64;100811.19;5095801;27;45475;-54
2022/11/14 00:22:23;;;;;;;;;34.00;31.25;;;;;9.65;75.74;100812.78;5076993;28;45383;-55
2022/11/14 00:24:49;;;;;;;;;40.75;35.00;;;;;9.64;75.73;100796.00;5066788;28;45479;-57
2022/11/14 00:27:14;;;;;;;;;30.25;26.00;;;;;9.63;76.43;100804.00;5050440;28;45913;-59
2022/11/14 00:29:40;;;;;;;;;34.75;28.50;;;;;9.64;75.89;100798.66;5076740;28;45358;-59
2022/11/14 00:32:06;;;;;;;;;40.25;36.00;;;;;9.62;76.14;100789.00;5052626;28;45396;-60
2022/11/14 00:34:32;;;;;;;;;42.75;35.00;;;;;9.63;76.47;100796.03;5071467;28;45338;-62
2022/11/14 00:36:57;;;;;;;;;33.00;28.50;;;;;9.64;76.65;100798.66;5075688;28;46150;-56
2022/11/14 00:39:23;;;;;;;;;29.75;27.50;;;;;9.65;76.42;100791.53;5053978;28;45289;-57
2022/11/14 00:41:49;;;;;;;;;29.25;26.75;;;;;9.55;76.98;100791.13;5074457;28;45203;-56
2022/11/14 00:44:14;;;;;;;;;35.25;31.25;;;;;9.55;76.81;100795.56;5077672;28;45506;-59
2022/11/14 00:46:39;;;;;;;;;29.50;28.25;;;;;9.56;77.28;100789.31;5079803;27;48115;-54
2022/11/14 00:49:05;;;;;;;;;33.75;31.00;;;;;9.59;76.42;100781.19;5061509;27;49375;-60
2022/11/14 00:51:31;;;;;;;;;28.50;25.00;;;;;9.50;76.13;100781.63;5057351;28;45481;-54
2022/11/14 00:53:56;;;;;;;;;27.75;27.00;;;;;9.48;77.13;100786.16;5062896;28;45590;-57
2022/11/14 00:56:21;;;;;;;;;31.00;26.50;;;;;9.42;76.21;100784.69;5065462;27;45362;-56
2022/11/14 00:58:47;;;;;;;;;23.00;19.00;;;;;9.39;77.16;100783.03;5085164;27;45272;-55
2022/11/14 01:01:13;;;;;;;;;31.00;28.75;;;;;9.34;77.38;100782.38;5076545;27;45323;-56
2022/11/14 01:03:38;;;;;;;;;35.75;28.25;;;;;9.39;77.38;100780.38;5069904;27;45344;-56
2022/11/14 01:06:06;;;;;;;;;39.25;28.75;;;;;9.40;77.05;100776.78;5058247;28;45880;-60
2022/11/14 01:08:32;;;;;;;;;35.25;33.25;;;;;9.38;77.63;100778.66;5077127;27;45319;-58
2022/11/14 01:10:58;;;;;;;;;29.75;23.75;;;;;9.32;77.30;100773.63;5076749;28;45370;-55
2022/11/14 01:13:23;;;;;;;;;37.50;33.75;;;;;9.31;77.70;100779.88;5075429;27;45641;-56
2022/11/14 01:15:49;;;;;;;;;33.75;28.75;;;;;9.33;76.72;100769.19;5075379;27;46041;-55
2022/11/14 01:18:18;;;;;;;;;35.25;29.00;;;;;9.30;77.55;100772.84;5041600;28;45485;-56
2022/11/14 01:20:45;;;;;;;;;34.25;29.25;;;;;9.34;78.13;100763.81;5075880;27;45344;-58
2022/11/14 01:23:12;;;;;;;;;29.25;24.25;;;;;9.33;76.68;100764.75;5075100;27;45548;-56
2022/11/14 01:25:39;;;;;;;;;33.50;25.25;;;;;9.25;76.77;100758.09;5076265;28;45342;-55
2022/11/14 01:28:09;;;;;;;;;38.25;29.00;;;;;9.25;76.96;100761.59;5075408;27;45437;-57
2022/11/14 01:30:35;;;;;;;;;37.00;30.75;;;;;9.23;76.48;100763.44;5077176;27;45497;-56
2022/11/14 01:33:01;;;;;;;;;37.50;29.00;;;;;9.26;76.60;100757.16;5076121;27;45444;-58
2022/11/14 01:35:26;;;;;;;;;29.00;26.00;;;;;9.26;76.34;100758.03;5057796;28;47863;-53
2022/11/14 01:37:52;;;;;;;;;31.00;28.00;;;;;9.25;76.33;100755.44;5074049;27;45373;-56
2022/11/14 01:40:17;;;;;;;;;37.50;32.25;;;;;9.26;77.04;100744.75;5075879;28;45232;-54
2022/11/14 01:43:17;;;;;;;;;38.75;26.25;;;;;9.29;76.49;100738.44;5076211;27;45483;-55
2022/11/14 01:45:56;;;;;;;;;37.00;31.00;;;;;9.30;76.91;100737.50;5059661;27;45520;-57
2022/11/14 01:48:41;;;;;;;;;39.00;36.00;;;;;9.26;77.03;100726.19;5074722;27;45205;-56
2022/11/14 01:51:31;;;;;;;;;29.75;27.50;;;;;9.23;76.77;100725.44;5074804;27;45358;-57
2022/11/14 01:54:02;;;;;;;;;29.50;24.25;;;;;9.23;77.15;100728.94;5078484;27;45553;-54
2022/11/14 01:56:33;;;;;;;;;30.50;28.25;;;;;9.22;77.03;100724.59;5078347;27;46945;-59
2022/11/14 01:59:06;;;;;;;;;36.25;33.25;;;;;9.20;76.87;100714.97;5079142;27;45664;-60
2022/11/14 02:01:34;;;;;;;;;35.25;30.00;;;;;9.28;76.94;100724.31;5073876;27;45595;-57
2022/11/14 02:04:01;;;;;;;;;38.25;33.00;;;;;9.28;76.40;100734.91;5083312;27;45513;-54
2022/11/14 02:06:29;;;;;;;;;37.50;31.25;;;;;9.28;76.40;100721.66;5080136;27;45501;-59
2022/11/14 02:08:58;;;;;;;;;42.25;34.75;;;;;9.26;76.72;100717.34;5061050;28;45310;-56
2022/11/14 02:11:27;;;;;;;;;35.25;26.25;;;;;9.27;77.27;100724.38;5040913;28;45330;-53
2022/11/14 02:13:53;;;;;;;;;38.50;31.25;;;;;9.18;76.54;100709.75;5076432;27;45349;-57
2022/11/14 02:16:19;;;;;;;;;42.75;29.00;;;;;9.23;77.51;100718.34;5077068;27;45345;-54
2022/11/14 02:18:44;;;;;;;;;40.50;31.00;;;;;9.27;77.25;100719.94;5078882;27;45394;-55
2022/11/14 02:21:09;;;;;;;;;29.50;29.50;;;;;9.24;77.30;100722.72;5079058;27;45619;-58
2022/11/14 02:23:35;;;;;;;;;44.75;29.50;;;;;9.20;77.21;100720.28;5077227;27;45375;-60
2022/11/14 02:26:00;;;;;;;;;55.75;39.25;;;;;9.25;76.55;100729.75;5060820;28;46126;-62
2022/11/14 02:28:26;;;;;;;;;44.50;35.75;;;;;9.19;76.82;100714.13;5077931;27;45339;-60
2022/11/14 02:30:51;;;;;;;;;57.75;42.50;;;;;9.19;77.50;100700.84;5069432;27;45468;-58
2022/11/14 02:33:17;;;;;;;;;42.50;35.50;;;;;9.22;78.15;100713.09;5084359;27;45586;-59
2022/11/14 02:35:42;;;;;;;;;49.50;38.25;;;;;9.22;77.01;100716.63;5081529;27;46181;-59
2022/11/14 02:38:08;;;;;;;;;44.50;36.50;;;;;9.23;77.80;100707.72;5061565;27;45464;-56
2022/11/14 02:40:33;;;;;;;;;42.00;33.25;;;;;9.23;76.97;100698.91;5057438;28;45443;-57
2022/11/14 02:42:59;;;;;;;;;40.75;36.50;;;;;9.25;77.95;100699.72;5078242;27;45409;-58
2022/11/14 02:45:25;;;;;;;;;27.50;23.50;;;;;9.19;77.90;100698.19;5059065;28;46113;-56
2022/11/14 02:47:50;;;;;;;;;39.50;36.25;;;;;9.20;77.69;100705.22;5071180;27;45360;-55
2022/11/14 02:50:16;;;;;;;;;30.00;25.75;;;;;9.16;77.52;100703.66;5078480;27;45337;-55
2022/11/14 02:52:41;;;;;;;;;33.00;29.50;;;;;9.19;77.51;100703.50;5062272;28;45576;-54
2022/11/14 02:55:07;;;;;;;;;37.50;28.25;;;;;9.15;78.02;100701.94;5078443;27;45441;-58
2022/11/14 02:57:33;;;;;;;;;29.25;25.50;;;;;9.12;78.20;100696.78;5078571;27;45284;-54
2022/11/14 02:59:58;;;;;;;;;36.75;30.25;;;;;9.09;77.42;100692.47;5078130;27;45193;-60
2022/11/14 03:02:24;;;;;;;;;42.50;32.75;;;;;9.08;77.88;100681.94;5082809;27;46400;-62
2022/11/14 03:04:49;;;;;;;;;39.25;32.25;;;;;9.11;77.95;100680.03;5072536;27;46263;-62
2022/11/14 03:07:15;;;;;;;;;38.00;31.25;;;;;9.11;78.01;100687.09;5059514;27;45474;-57
2022/11/14 03:09:40;;;;;;;;;37.00;32.25;;;;;9.00;78.50;100678.81;5049872;27;45528;-63
2022/11/14 03:12:06;;;;;;;;;32.00;29.25;;;;;8.99;78.79;100674.44;5078239;27;45478;-55
2022/11/14 03:14:31;;;;;;;;;33.75;29.00;;;;;9.04;77.89;100675.06;5078196;27;45245;-61
2022/11/14 03:16:57;;;;;;;;;34.25;27.50;;;;;9.02;77.52;100661.03;5077888;27;45414;-62
2022/11/14 03:19:22;;;;;;;;;35.25;27.00;;;;;9.07;78.11;100661.66;5078337;27;45321;-57
2022/11/14 03:21:48;;;;;;;;;33.00;27.50;;;;;9.02;77.10;100663.69;5070651;27;45612;-58
2022/11/14 03:24:13;;;;;;;;;34.75;27.50;;;;;9.07;77.15;100677.56;5059734;28;46812;-61
2022/11/14 03:26:38;;;;;;;;;29.00;28.00;;;;;9.04;77.27;100667.97;5077504;27;45524;-56
2022/11/14 03:29:04;;;;;;;;;39.50;28.50;;;;;9.04;77.80;100661.81;5078928;27;45382;-59
2022/11/14 03:31:29;;;;;;;;;32.50;27.50;;;;;9.07;77.93;100661.66;5073122;27;45465;-57
2022/11/14 03:33:54;;;;;;;;;31.25;25.50;;;;;9.05;77.40;100666.19;5078386;27;46344;-59
2022/11/14 03:36:20;;;;;;;;;31.00;24.25;;;;;9.03;77.78;100660.94;5077314;27;45425;-58
2022/11/14 03:38:46;;;;;;;;;32.00;27.75;;;;;9.02;77.70;100668.97;5076011;27;45400;-60
2022/11/14 03:41:12;;;;;;;;;30.00;26.75;;;;;8.96;78.40;100669.25;5077758;27;45504;-55
2022/11/14 03:43:37;;;;;;;;;32.00;25.25;;;;;9.01;78.19;100673.44;5058533;27;46081;-62
2022/11/14 03:46:03;;;;;;;;;31.75;25.00;;;;;9.01;77.59;100673.44;5077974;27;45322;-58
2022/11/14 03:48:28;;;;;;;;;35.50;29.50;;;;;9.01;78.35;100676.09;5056179;28;45422;-55
2022/11/14 03:50:55;;;;;;;;;24.75;23.25;;;;;8.95;77.97;100662.25;5059606;27;45371;-56
2022/11/14 03:53:20;;;;;;;;;36.75;27.25;;;;;9.00;78.15;100662.91;5078139;28;46137;-59
2022/11/14 03:55:45;;;;;;;;;27.00;24.25;;;;;8.91;78.50;100652.72;5058202;27;45499;-60
2022/11/14 03:58:11;;;;;;;;;30.50;24.50;;;;;9.00;77.91;100665.56;5062438;27;45505;-56
2022/11/14 04:00:37;;;;;;;;;30.25;25.25;;;;;9.02;78.11;100666.34;5080876;27;45411;-59
2022/11/14 04:03:02;;;;;;;;;31.50;28.00;;;;;8.98;78.37;100659.44;5078658;27;45460;-55
2022/11/14 04:05:27;;;;;;;;;29.00;24.25;;;;;9.01;78.44;100661.97;5053655;28;45415;-62
2022/11/14 04:07:53;;;;;;;;;33.50;24.25;;;;;8.91;78.70;100650.06;5077241;27;45508;-54
2022/11/14 04:10:18;;;;;;;;;33.25;28.00;;;;;8.93;79.37;100658.81;5077353;27;45489;-57
2022/11/14 04:12:53;;;;;;;;;26.50;26.50;;;;;8.91;79.34;100652.72;5064423;27;45487;-55
2022/11/14 04:15:18;;;;;;;;;26.00;23.50;;;;;8.82;79.66;100646.91;5075799;27;45376;-57
2022/11/14 04:17:45;;;;;;;;;25.75;23.00;;;;;8.89;79.15;100654.59;5075789;27;45944;-55
2022/11/14 04:20:12;;;;;;;;;34.50;24.75;;;;;8.92;79.28;100647.34;5078110;27;45444;-55
2022/11/14 04:22:37;;;;;;;;;25.25;22.25;;;;;8.97;79.25;100649.75;5077097;27;45494;-58
2022/11/14 04:25:03;;;;;;;;;31.00;25.00;;;;;9.01;79.28;100651.34;5076820;27;45266;-58
2022/11/14 04:27:28;;;;;;;;;30.75;26.50;;;;;9.02;79.09;100642.47;5059997;27;45233;-59
2022/11/14 04:29:54;;;;;;;;;24.00;21.75;;;;;9.01;78.97;100646.91;5075813;27;45307;-60
2022/11/14 04:32:19;;;;;;;;;31.00;26.50;;;;;9.03;78.77;100655.66;5078319;27;47326;-58
2022/11/14 04:34:44;;;;;;;;;33.00;24.75;;;;;9.06;79.12;100654.63;5077804;27;45429;-59
2022/11/14 04:37:10;;;;;;;;;28.75;25.50;;;;;9.01;79.30;100651.34;5059781;28;45327;-56
2022/11/14 04:39:35;;;;;;;;;26.50;26.50;;;;;9.01;78.82;100654.00;5079070;27;45544;-57
2022/11/14 04:42:01;;;;;;;;;29.00;23.25;;;;;8.94;79.31;100639.31;5060013;27;46348;-57
2022/11/14 04:44:26;;;;;;;;;24.50;24.50;;;;;9.11;79.14;100652.59;5071540;27;45298;-57
2022/11/14 04:46:52;;;;;;;;;27.50;23.50;;;;;9.08;78.37;100655.41;5075982;27;45179;-58
2022/11/14 04:49:17;;;;;;;;;27.00;23.25;;;;;9.11;79.20;100649.94;5077426;27;45549;-53
2022/11/14 04:51:42;;;;;;;;;31.25;25.00;;;;;9.13;78.52;100637.50;5075920;27;45327;-54
2022/11/14 04:54:08;;;;;;;;;34.75;27.00;;;;;9.13;79.23;100641.00;5076596;27;45342;-57
2022/11/14 04:56:33;;;;;;;;;28.00;22.50;;;;;9.18;78.79;100642.56;5080332;27;45466;-58
2022/11/14 04:58:59;;;;;;;;;28.75;23.50;;;;;9.21;78.27;100637.09;5076393;27;45378;-56
2022/11/14 05:01:24;;;;;;;;;26.25;22.75;;;;;9.22;79.03;100638.81;5076285;27;45877;-57
2022/11/14 05:03:49;;;;;;;;;24.75;20.75;;;;;9.20;79.41;100638.03;5079800;27;45534;-58
2022/11/14 05:06:15;;;;;;;;;22.50;20.00;;;;;9.18;79.03;100634.59;5064294;27;45665;-57
2022/11/14 05:08:40;;;;;;;;;28.25;24.50;;;;;9.11;78.69;100616.34;5079043;27;45461;-55
2022/11/14 05:11:06;;;;;;;;;20.50;18.50;;;;;9.15;79.38;100622.34;5075524;27;46140;-61
2022/11/14 05:13:31;;;;;;;;;31.00;26.75;;;;;9.19;79.54;100618.59;5075640;27;45259;-63
2022/11/14 05:16:00;;;;;;;;;31.50;21.25;;;;;9.18;79.36;100627.50;5075795;27;45526;-60
2022/11/14 05:18:26;;;;;;;;;26.50;20.75;;;;;9.21;79.12;100626.47;5076335;27;45821;-58
2022/11/14 05:20:58;;;;;;;;;17.50;17.50;;;;;9.20;78.87;100615.00;5068103;27;45402;-61
2022/11/14 05:23:23;;;;;;;;;25.25;19.50;;;;;9.19;80.14;100607.13;5074397;27;45400;-62
2022/11/14 05:25:58;;;;;;;;;28.00;20.75;;;;;9.19;79.35;100602.69;5074816;27;45883;-61
2022/11/14 05:28:24;;;;;;;;;15.00;15.00;;;;;9.21;79.64;100608.75;5076142;28;45257;-60
2022/11/14 05:30:49;;;;;;;;;27.25;20.50;;;;;9.23;78.61;100609.53;5076995;27;46145;-62
2022/11/14 05:33:14;;;;;;;;;29.25;24.00;;;;;9.24;79.59;100610.41;5044374;27;45347;-59
2022/11/14 05:35:40;;;;;;;;;25.50;20.50;;;;;9.19;79.96;100597.38;5080464;27;45454;-58
2022/11/14 05:38:05;;;;;;;;;26.00;22.00;;;;;9.27;78.85;100600.50;5075045;27;45383;-60
2022/11/14 05:40:30;;;;;;;;;36.00;24.75;;;;;9.29;78.72;100605.72;5074535;27;46827;-63
2022/11/14 05:42:56;;;;;;;;;27.25;23.00;;;;;9.32;78.91;100603.78;5075581;27;45590;-62
2022/11/14 05:45:21;;;;;;;;;18.00;14.00;;;;;9.28;79.03;100596.91;5076073;27;45456;-62
2022/11/14 05:47:46;;;;;;;;;21.75;20.75;;;;;9.30;79.73;100592.38;5074991;27;45248;-65
2022/11/14 05:50:12;;;;;;;;;30.25;21.75;;;;;9.32;79.29;100587.84;5075474;27;46239;-63
2022/11/14 05:52:37;;;;;;;;;29.75;19.25;;;;;9.32;79.97;100582.53;5071856;27;45386;-63
2022/11/14 05:55:03;;;;;;;;;22.75;21.50;;;;;9.37;79.10;100575.19;5074123;27;45402;-61
2022/11/14 05:57:29;;;;;;;;;29.75;24.25;;;;;9.39;80.13;100577.78;5068792;27;45560;-63
2022/11/14 05:59:56;;;;;;;;;28.00;23.50;;;;;9.37;79.30;100569.88;5076033;28;46235;-59
2022/11/14 06:02:21;;;;;;;;;27.00;27.00;;;;;9.41;80.27;100575.91;5080600;27;45455;-61
2022/11/14 06:04:47;;;;;;;;;29.50;19.00;;;;;9.41;79.92;100579.44;5056963;27;45377;-58
2022/11/14 06:07:12;;;;;;;;;29.75;23.25;;;;;9.40;79.65;100569.75;5089085;27;45810;-63
2022/11/14 06:09:37;;;;;;;;;28.00;25.75;;;;;9.42;80.06;100562.56;5074862;27;45401;-58
2022/11/14 06:12:06;;;;;;;;;26.25;23.00;;;;;9.46;79.72;100564.09;5078471;27;45468;-54
2022/11/14 06:14:32;;;;;;;;;30.50;23.00;;;;;9.45;78.81;100565.06;5073248;27;45525;-60
2022/11/14 06:16:57;;;;;;;;;19.75;18.00;;;;;9.44;78.43;100571.31;5043677;27;45469;-60
2022/11/14 06:19:22;;;;;;;;;30.25;26.75;;;;;9.44;79.29;100575.75;5070386;27;45915;-59
2022/11/14 06:21:48;;;;;;;;;29.50;24.75;;;;;9.41;79.20;100570.59;5064186;27;51442;-57
2022/11/14 06:24:13;;;;;;;;;31.75;26.25;;;;;9.39;79.10;100567.19;5065512;27;45363;-56
2022/11/14 06:26:39;;;;;;;;;27.25;23.00;;;;;9.40;79.65;100567.09;5081192;27;45308;-56
2022/11/14 06:29:04;;;;;;;;;25.50;24.75;;;;;9.40;79.24;100572.41;5047460;28;47421;-58
2022/11/14 06:31:29;;;;;;;;;28.00;24.00;;;;;9.44;80.28;100587.22;5074740;27;45470;-58
2022/11/14 06:33:55;;;;;;;;;26.00;21.75;;;;;9.42;79.79;100578.50;5073815;27;45652;-59
2022/11/14 06:36:21;;;;;;;;;21.50;16.00;;;;;9.46;80.05;100572.06;5079576;27;45351;-60
2022/11/14 06:38:46;;;;;;;;;26.50;23.75;;;;;9.45;78.55;100567.72;5077995;27;45533;-59
2022/11/14 06:41:17;;;;;;;;;28.50;24.00;;;;;9.49;79.13;100572.84;5078262;27;45405;-54
2022/11/14 06:43:45;;;;;;;;;35.00;24.25;;;;;9.44;79.49;100566.00;5079118;27;45441;-59
2022/11/14 06:46:14;;;;;;;;;25.50;22.00;;;;;9.48;78.90;100576.44;5078252;27;47368;-58
2022/11/14 06:48:40;;;;;;;;;29.50;24.00;;;;;9.46;79.49;100585.34;5057915;28;47845;-57
2022/11/14 06:51:06;;;;;;;;;26.00;23.25;;;;;9.41;79.10;100567.97;5032430;28;45457;-59
2022/11/14 06:53:34;;;;;;;;;14.50;12.00;;;;;9.44;79.54;100579.25;5081369;27;45224;-58
2022/11/14 06:56:11;;;;;;;;;24.25;17.00;;;;;9.50;79.20;100582.53;5080322;27;45288;-58
2022/11/14 06:58:42;;;;;;;;;26.25;19.00;;;;;9.45;79.55;100580.97;5078491;27;45428;-63
2022/11/14 07:01:11;;;;;;;;;22.50;20.50;;;;;9.50;78.78;100593.16;5059009;27;45415;-58
2022/11/14 07:03:37;;;;;;;;;21.75;19.50;;;;;9.50;79.42;100601.09;5075852;27;45453;-56
2022/11/14 07:06:04;;;;;;;;;27.50;16.50;;;;;9.45;79.83;100593.41;5083864;27;45659;-56
2022/11/14 07:08:30;;;;;;;;;20.25;16.25;;;;;9.43;78.39;100601.44;5078635;27;45360;-60
2022/11/14 07:11:07;;;;;;;;;21.00;18.00;;;;;9.43;79.28;100609.41;5084620;27;45498;-61
2022/11/14 07:13:34;;;;;;;;;21.25;21.25;;;;;9.36;80.13;100615.94;5058197;27;45462;-56
2022/11/14 07:16:00;;;;;;;;;25.25;19.50;;;;;9.27;79.40;100604.97;5077200;27;45699;-58
2022/11/14 07:18:26;;;;;;;;;25.75;18.75;;;;;9.29;79.91;100614.56;5076272;27;46156;-54
2022/11/14 07:21:03;;;;;;;;;20.00;17.00;;;;;9.28;79.20;100620.81;5078190;28;45322;-59
2022/11/14 07:23:29;;;;;;;;;19.00;15.50;;;;;9.30;79.24;100602.16;5086495;27;45451;-56
2022/11/14 07:25:58;;;;;;;;;21.00;18.75;;;;;9.28;79.47;100604.03;5098811;27;45528;-57
2022/11/14 07:28:24;;;;;;;;;24.00;17.00;;;;;9.26;79.52;100604.09;5078456;27;46291;-57
2022/11/14 07:30:50;;;;;;;;;25.75;19.75;;;;;9.28;79.73;100606.69;5077315;27;45447;-53
2022/11/14 07:33:15;;;;;;;;;25.25;19.25;;;;;9.27;79.34;100612.91;5080504;27;45325;-55
2022/11/14 07:35:41;;;;;;;;;23.00;19.00;;;;;9.22;79.74;100613.13;5064972;28;45471;-54
2022/11/14 07:38:06;;;;;;;;;17.75;14.25;;;;;9.22;79.23;100622.88;5042886;28;46755;-55
2022/11/14 07:40:32;;;;;;;;;17.25;15.00;;;;;9.19;78.82;100618.59;5058028;28;45380;-62
2022/11/14 07:42:59;;;;;;;;;19.50;15.00;;;;;9.18;78.28;100629.28;5057977;28;45347;-65
2022/11/14 07:45:25;;;;;;;;;15.50;15.50;;;;;9.12;79.29;100622.50;5074893;27;45532;-57
2022/11/14 07:47:57;;;;;;;;;18.50;16.00;;;;;9.07;79.28;100613.91;5080633;27;45849;-59
2022/11/14 07:50:23;;;;;;;;;19.75;18.75;;;;;9.03;79.10;100617.66;5078552;28;45437;-58
2022/11/14 07:52:54;;;;;;;;;23.50;19.00;;;;;9.07;80.08;100609.44;5085840;27;45585;-57
2022/11/14 07:55:19;;;;;;;;;29.00;22.75;;;;;9.07;79.79;100621.84;5080646;27;45518;-62
2022/11/14 07:57:45;;;;;;;;;25.25;23.00;;;;;9.11;78.85;100621.66;5092123;27;45444;-58
2022/11/14 08:00:11;;;;;;;;;23.75;20.25;;;;;9.18;78.56;100624.84;5056354;27;45353;-58
2022/11/14 08:02:37;;;;;;;;;22.75;19.75;;;;;9.21;79.13;100613.22;5095820;27;45811;-56
2022/11/14 08:05:03;;;;;;;;;20.75;18.50;;;;;9.21;78.26;100607.91;5088958;27;45533;-62
2022/11/14 08:07:28;;;;;;;;;20.75;19.75;;;;;9.25;78.48;100612.16;5081952;27;45337;-55
2022/11/14 08:09:53;;;;;;;;;21.50;19.75;;;;;9.29;78.09;100608.38;5089680;27;45382;-62
2022/11/14 08:12:19;;;;;;;;;29.25;26.00;;;;;9.30;78.64;100604.78;5078617;27;45369;-58
2022/11/14 08:14:44;;;;;;;;;25.00;20.75;;;;;9.32;78.40;100608.22;5078076;27;45593;-65
2022/11/14 08:17:10;;;;;;;;;24.00;22.25;;;;;9.32;77.88;100614.38;5076926;28;45255;-56
2022/11/14 08:19:35;;;;;;;;;21.25;20.75;;;;;9.34;77.71;100601.91;5075249;27;45441;-61
2022/11/14 08:22:01;;;;;;;;;25.25;23.00;;;;;9.25;77.49;100586.47;5057030;28;45370;-63
2022/11/14 08:24:26;;;;;;;;;33.25;23.75;;;;;9.38;78.17;100606.13;5056934;28;45394;-66
2022/11/14 08:26:52;;;;;;;;;27.00;25.75;;;;;9.42;77.82;100605.03;5057190;28;45375;-61
2022/11/14 08:29:17;;;;;;;;;28.50;22.75;;;;;9.44;78.79;100602.28;5056816;28;45277;-66
2022/11/14 08:31:44;;;;;;;;;24.75;23.00;;;;;9.41;78.45;100597.16;5077007;27;45249;-66
2022/11/14 08:34:10;;;;;;;;;29.00;25.50;;;;;9.47;77.23;100610.09;5042527;28;45525;-64
2022/11/14 08:36:35;;;;;;;;;40.25;36.75;;;;;9.48;77.85;100597.69;5057009;28;45501;-60
2022/11/14 08:39:01;;;;;;;;;23.25;19.50;;;;;9.55;77.99;100607.06;5057143;28;45453;-67
2022/11/14 08:41:28;;;;;;;;;22.50;20.00;;;;;9.56;78.01;100598.16;5073144;27;45541;-60
2022/11/14 08:43:54;;;;;;;;;17.50;16.25;;;;;9.59;77.88;100601.50;5068924;27;45645;-59
2022/11/14 08:46:20;;;;;;;;;36.50;34.75;;;;;9.57;77.11;100607.84;5077284;28;45303;-55
2022/11/14 08:48:46;;;;;;;;;29.25;21.25;;;;;9.59;77.92;100621.88;5094584;27;45401;-62
2022/11/14 08:51:11;;;;;;;;;25.00;19.75;;;;;9.55;77.17;100604.41;5088931;27;45390;-68
2022/11/14 08:53:37;;;;;;;;;14.25;11.50;;;;;9.54;77.89;100602.69;5076224;27;45547;-59
2022/11/14 08:56:03;;;;;;;;;26.25;18.75;;;;;9.64;77.39;100614.56;5076777;27;45959;-63
2022/11/14 08:58:29;;;;;;;;;20.00;16.50;;;;;9.70;77.49;100614.22;5077041;28;45446;-58
2022/11/14 09:01:03;;;;;;;;;25.50;23.25;;;;;9.63;77.67;100596.88;5076392;27;45421;-57
2022/11/14 09:03:28;;;;;;;;;26.25;24.75;;;;;9.67;76.71;100598.47;5075011;28;45498;-55
2022/11/14 09:05:54;;;;;;;;;29.00;26.50;;;;;9.71;76.98;100608.84;5060242;27;46903;-60
2022/11/14 09:08:20;;;;;;;;;22.25;18.25;;;;;9.77;77.80;100614.78;5054160;27;45393;-57
2022/11/14 09:10:46;;;;;;;;;30.00;23.50;;;;;9.78;76.98;100611.19;5067946;27;45571;-62
2022/11/14 09:13:11;;;;;;;;;27.50;21.25;;;;;9.72;77.00;100602.59;5080075;27;45558;-59
2022/11/14 09:15:37;;;;;;;;;36.25;26.25;;;;;9.85;76.48;100621.38;5068437;27;45873;-59
2022/11/14 09:18:03;;;;;;;;;32.75;25.75;;;;;9.92;77.20;100608.66;5074641;27;45763;-54
2022/11/14 09:20:29;;;;;;;;;31.75;25.75;;;;;9.90;76.94;100616.72;5070893;27;45715;-58
2022/11/14 09:22:57;;;;;;;;;34.25;26.00;;;;;9.92;75.86;100609.50;5058542;28;45766;-59
2022/11/14 09:25:25;;;;;;;;;25.50;23.50;;;;;9.90;76.19;100624.69;5074957;27;45411;-55
2022/11/14 09:27:51;;;;;;;;;27.75;26.00;;;;;9.87;76.35;100608.88;5050523;28;45617;-58
2022/11/14 09:30:16;;;;;;;;;22.25;20.75;;;;;9.93;76.19;100611.22;5061361;27;45585;-58
2022/11/14 09:32:42;;;;;;;;;31.25;28.75;;;;;10.00;75.74;100611.75;5072312;27;45569;-53
2022/11/14 09:35:07;;;;;;;;;37.75;32.00;;;;;10.08;76.41;100614.00;5073515;27;47208;-57
2022/11/14 09:37:33;;;;;;;;;28.75;28.75;;;;;10.02;75.79;100610.72;5055962;28;45439;-55
2022/11/14 09:39:58;;;;;;;;;28.50;26.00;;;;;10.09;75.74;100595.31;5059442;27;45413;-58
2022/11/14 09:42:42;;;;;;;;;31.50;24.50;;;;;10.23;75.29;100610.56;5074881;27;45516;-58
2022/11/14 09:45:26;;;;;;;;;20.00;13.25;;;;;10.21;75.18;100605.31;5069272;27;45448;-62
2022/11/14 09:48:00;;;;;;;;;26.00;25.00;;;;;10.26;75.93;100597.09;5064470;27;45500;-62
2022/11/14 09:50:31;;;;;;;;;27.00;24.75;;;;;10.25;75.07;100592.72;5057090;28;45701;-61
2022/11/14 09:53:03;;;;;;;;;31.50;28.00;;;;;10.22;74.89;100591.09;5078808;27;45552;-60
2022/11/14 09:55:31;;;;;;;;;30.75;29.25;;;;;10.20;75.46;100589.44;5075798;27;47156;-63
2022/11/14 09:57:56;;;;;;;;;28.25;22.50;;;;;10.23;75.25;100595.47;5075456;28;45406;-62
2022/11/14 10:00:24;;;;;;;;;32.75;24.25;;;;;10.26;75.83;100597.94;5075114;27;45462;-55
2022/11/14 10:03:02;;;;;;;;;34.50;28.25;;;;;10.34;75.15;100606.38;5057500;28;45365;-59
2022/11/14 10:05:58;;;;;;;;;24.75;23.25;;;;;10.37;75.50;100594.69;5075031;28;47019;-57
2022/11/14 10:09:01;;;;;;;;;28.75;25.50;;;;;10.42;75.03;100597.97;5060059;27;45251;-58
2022/11/14 10:11:42;;;;;;;;;26.00;22.00;;;;;10.38;74.42;100609.72;5074306;27;45555;-59
2022/11/14 10:14:19;;;;;;;;;22.75;22.75;;;;;10.38;74.65;100612.38;5076215;27;45254;-59
2022/11/14 10:17:02;;;;;;;;;23.25;21.00;;;;;10.37;74.28;100602.69;5059359;28;45525;-57
2022/11/14 10:19:41;;;;;;;;;29.75;22.00;;;;;10.38;74.38;100604.38;5071603;27;45360;-58
2022/11/14 10:22:45;;;;;;;;;21.75;20.00;;;;;10.36;74.73;100608.94;5079535;27;45402;-57
2022/11/14 10:25:37;;;;;;;;;25.00;22.75;;;;;10.46;74.89;100610.16;5072747;27;45584;-60
2022/11/14 10:28:40;;;;;;;;;25.75;23.00;;;;;10.54;74.82;100591.94;5076260;27;46466;-61
2022/11/14 10:31:18;;;;;;;;;21.50;19.75;;;;;10.57;74.01;100593.63;5078029;27;45495;-62
2022/11/14 10:33:58;;;;;;;;;27.75;25.00;;;;;10.56;74.02;100587.44;5078156;27;45464;-59
2022/11/14 10:36:33;;;;;;;;;24.25;19.50;;;;;10.73;73.79;100590.94;5059456;28;45500;-57
2022/11/14 10:39:11;;;;;;;;;23.75;20.25;;;;;10.73;72.53;100577.63;5043094;27;45716;-56
2022/11/14 10:41:37;;;;;;;;;30.50;25.00;;;;;10.73;73.08;100580.31;5058825;28;45356;-57
2022/11/14 10:44:10;;;;;;;;;25.75;24.50;;;;;10.79;72.83;100575.47;5060389;27;45197;-59
2022/11/14 10:46:40;;;;;;;;;14.50;12.25;;;;;10.88;73.23;100574.94;5075573;27;46916;-61
2022/11/14 10:49:21;;;;;;;;;26.50;25.00;;;;;10.99;72.43;100577.00;5068627;27;45710;-62
2022/11/14 10:51:51;;;;;;;;;24.50;19.00;;;;;11.11;72.48;100559.47;5060455;28;45316;-59
2022/11/14 10:54:21;;;;;;;;;32.25;20.75;;;;;11.24;71.62;100571.09;5079924;27;45507;-58
2022/11/14 10:56:52;;;;;;;;;23.00;19.75;;;;;11.34;71.06;100561.63;5061132;28;45366;-62
2022/11/14 10:59:19;;;;;;;;;24.00;18.75;;;;;11.45;71.29;100566.28;5072992;27;46416;-62
2022/11/14 11:01:57;;;;;;;;;32.50;24.00;;;;;11.56;70.80;100563.84;5075629;27;45464;-59
2022/11/14 11:04:27;;;;;;;;;27.00;23.50;;;;;11.67;69.65;100564.03;5055743;28;45258;-61
2022/11/14 11:06:57;;;;;;;;;27.50;22.25;;;;;11.67;70.07;100558.72;5062524;27;45336;-64
2022/11/14 11:12:16;;;;;;;;;29.50;28.00;;;;;11.76;69.82;100544.00;5072683;27;45307;-58
2022/11/14 11:14:43;;;;;;;;;27.00;22.00;;;;;11.90;69.74;100544.03;5079021;27;45430;-56
2022/11/14 11:17:18;;;;;;;;;34.25;28.75;;;;;11.94;68.96;100539.34;5077073;27;45551;-58
2022/11/14 11:19:46;;;;;;;;;27.25;24.50;;;;;11.96;68.93;100542.75;5079440;28;46100;-60
2022/11/14 11:22:36;;;;;;;;;28.25;25.75;;;;;12.04;68.92;100527.16;5059439;28;45321;-57